sensor_id;sensor_type;location;lat;lon;timestamp;temperature;humidity
9820;DHT22;4949;48.482;9.206;2024-02-26T00:03:41;8.50;70.20
9820;DHT22;4949;48.482;9.206;2024-02-26T00:08:46;8.60;70.60
9820;DHT22;4949;48.482;9.206;2024-02-26T00:13:49;8.40;70.10
9820;DHT22;4949;48.482;9.206;2024-02-26T00:18:50;8.30;70.20
9820;DHT22;4949;48.482;9.206;2024-02-26T00:23:52;8.30;70.40
9820;DHT22;4949;48.482;9.206;2024-02-26T00:28:53;8.40;70.30
9820;DHT22;4949;48.482;9.206;2024-02-26T00:33:56;8.30;70.20
9820;DHT22;4949;48.482;9.206;2024-02-26T00:38:57;8.50;70.10
9820;DHT22;4949;48.482;9.206;2024-02-26T00:43:58;8.30;69.90
9820;DHT22;4949;48.482;9.206;2024-02-26T00:48:58;8.70;70.20
9820;DHT22;4949;48.482;9.206;2024-02-26T00:54:02;8.20;70.30
9820;DHT22;4949;48.482;9.206;2024-02-26T00:59:06;8.20;70.00
9820;DHT22;4949;48.482;9.206;2024-02-26T01:04:07;8.20;69.70
9820;DHT22;4949;48.482;9.206;2024-02-26T01:09:08;8.70;70.30
9820;DHT22;4949;48.482;9.206;2024-02-26T01:14:09;8.20;69.80
9820;DHT22;4949;48.482;9.206;2024-02-26T01:19:12;8.20;70.00
9820;DHT22;4949;48.482;9.206;2024-02-26T01:24:13;8.20;70.20
9820;DHT22;4949;48.482;9.206;2024-02-26T01:29:14;8.20;70.30
9820;DHT22;4949;48.482;9.206;2024-02-26T01:34:15;8.40;70.30
9820;DHT22;4949;48.482;9.206;2024-02-26T01:39:15;8.30;69.60
9820;DHT22;4949;48.482;9.206;2024-02-26T01:44:19;8.20;69.20
9820;DHT22;4949;48.482;9.206;2024-02-26T01:49:24;8.40;68.90
9820;DHT22;4949;48.482;9.206;2024-02-26T01:54:25;8.40;69.00
9820;DHT22;4949;48.482;9.206;2024-02-26T01:59:26;8.40;70.10
9820;DHT22;4949;48.482;9.206;2024-02-26T02:04:27;8.60;70.90
9820;DHT22;4949;48.482;9.206;2024-02-26T02:09:28;8.80;70.70
9820;DHT22;4949;48.482;9.206;2024-02-26T02:14:29;8.60;71.70
9820;DHT22;4949;48.482;9.206;2024-02-26T02:19:32;8.70;71.40
9820;DHT22;4949;48.482;9.206;2024-02-26T02:24:33;8.60;71.20
9820;DHT22;4949;48.482;9.206;2024-02-26T02:29:36;8.70;71.70
9820;DHT22;4949;48.482;9.206;2024-02-26T02:34:37;8.70;72.00
9820;DHT22;4949;48.482;9.206;2024-02-26T02:39:37;8.70;71.60
9820;DHT22;4949;48.482;9.206;2024-02-26T02:44:40;8.70;71.90
9820;DHT22;4949;48.482;9.206;2024-02-26T02:49:41;8.60;72.20
9820;DHT22;4949;48.482;9.206;2024-02-26T02:54:44;8.60;73.50
9820;DHT22;4949;48.482;9.206;2024-02-26T02:59:47;8.60;72.00
9820;DHT22;4949;48.482;9.206;2024-02-26T03:04:50;8.60;72.50
9820;DHT22;4949;48.482;9.206;2024-02-26T03:09:53;8.60;73.30
9820;DHT22;4949;48.482;9.206;2024-02-26T03:14:56;8.60;74.10
9820;DHT22;4949;48.482;9.206;2024-02-26T03:19:58;8.50;74.20
9820;DHT22;4949;48.482;9.206;2024-02-26T03:25:01;8.60;74.20
9820;DHT22;4949;48.482;9.206;2024-02-26T03:30:02;8.70;75.40
9820;DHT22;4949;48.482;9.206;2024-02-26T03:35:06;8.60;74.70
9820;DHT22;4949;48.482;9.206;2024-02-26T03:40:07;8.50;75.80
9820;DHT22;4949;48.482;9.206;2024-02-26T03:45:09;8.50;76.20
9820;DHT22;4949;48.482;9.206;2024-02-26T03:50:10;8.50;76.50
9820;DHT22;4949;48.482;9.206;2024-02-26T03:55:14;8.40;77.50
9820;DHT22;4949;48.482;9.206;2024-02-26T04:00:14;8.40;77.80
9820;DHT22;4949;48.482;9.206;2024-02-26T04:05:15;8.40;78.30
9820;DHT22;4949;48.482;9.206;2024-02-26T04:10:16;8.40;77.10
9820;DHT22;4949;48.482;9.206;2024-02-26T04:15:17;8.50;74.70
9820;DHT22;4949;48.482;9.206;2024-02-26T04:20:18;8.50;75.30
9820;DHT22;4949;48.482;9.206;2024-02-26T04:25:19;8.40;76.20
9820;DHT22;4949;48.482;9.206;2024-02-26T04:30:19;8.80;77.00
9820;DHT22;4949;48.482;9.206;2024-02-26T04:35:20;8.50;75.70
9820;DHT22;4949;48.482;9.206;2024-02-26T04:40:21;8.50;74.30
9820;DHT22;4949;48.482;9.206;2024-02-26T04:45:22;8.60;74.40
9820;DHT22;4949;48.482;9.206;2024-02-26T04:50:22;8.60;73.80
9820;DHT22;4949;48.482;9.206;2024-02-26T04:55:25;8.60;72.40
9820;DHT22;4949;48.482;9.206;2024-02-26T05:00:26;8.60;71.90
9820;DHT22;4949;48.482;9.206;2024-02-26T05:05:29;8.70;71.60
9820;DHT22;4949;48.482;9.206;2024-02-26T05:10:30;8.50;71.70
9820;DHT22;4949;48.482;9.206;2024-02-26T05:15:30;8.70;73.10
9820;DHT22;4949;48.482;9.206;2024-02-26T05:20:34;8.60;74.20
9820;DHT22;4949;48.482;9.206;2024-02-26T05:25:38;8.90;74.80
9820;DHT22;4949;48.482;9.206;2024-02-26T05:30:39;8.60;75.40
9820;DHT22;4949;48.482;9.206;2024-02-26T05:35:40;8.60;79.10
9820;DHT22;4949;48.482;9.206;2024-02-26T05:40:41;8.70;79.60
9820;DHT22;4949;48.482;9.206;2024-02-26T05:45:41;8.50;79.10
9820;DHT22;4949;48.482;9.206;2024-02-26T05:50:42;8.50;80.80
9820;DHT22;4949;48.482;9.206;2024-02-26T05:55:43;8.40;81.80
9820;DHT22;4949;48.482;9.206;2024-02-26T06:00:44;8.40;82.90
9820;DHT22;4949;48.482;9.206;2024-02-26T06:05:45;8.20;83.30
9820;DHT22;4949;48.482;9.206;2024-02-26T06:10:46;8.20;84.10
9820;DHT22;4949;48.482;9.206;2024-02-26T06:15:47;8.20;84.10
9820;DHT22;4949;48.482;9.206;2024-02-26T06:20:50;8.20;83.90
9820;DHT22;4949;48.482;9.206;2024-02-26T06:25:51;8.20;84.60
9820;DHT22;4949;48.482;9.206;2024-02-26T06:30:52;8.10;85.30
9820;DHT22;4949;48.482;9.206;2024-02-26T06:35:53;8.00;85.90
9820;DHT22;4949;48.482;9.206;2024-02-26T06:40:54;8.00;85.80
9820;DHT22;4949;48.482;9.206;2024-02-26T06:45:54;8.30;86.40
9820;DHT22;4949;48.482;9.206;2024-02-26T06:50:55;7.90;85.80
9820;DHT22;4949;48.482;9.206;2024-02-26T06:55:56;8.40;86.80
9820;DHT22;4949;48.482;9.206;2024-02-26T07:00:58;7.90;87.70
9820;DHT22;4949;48.482;9.206;2024-02-26T07:06:02;8.00;87.70
9820;DHT22;4949;48.482;9.206;2024-02-26T07:11:06;8.00;87.40
9820;DHT22;4949;48.482;9.206;2024-02-26T07:16:09;8.00;86.90
9820;DHT22;4949;48.482;9.206;2024-02-26T07:21:14;8.10;88.20
9820;DHT22;4949;48.482;9.206;2024-02-26T07:26:14;8.10;87.40
9820;DHT22;4949;48.482;9.206;2024-02-26T07:31:18;8.30;87.20
9820;DHT22;4949;48.482;9.206;2024-02-26T07:36:21;8.20;86.20
9820;DHT22;4949;48.482;9.206;2024-02-26T07:41:21;8.40;86.10
9820;DHT22;4949;48.482;9.206;2024-02-26T07:46:22;8.30;85.50
9820;DHT22;4949;48.482;9.206;2024-02-26T07:51:23;8.70;85.90
9820;DHT22;4949;48.482;9.206;2024-02-26T07:56:23;8.50;84.90
9820;DHT22;4949;48.482;9.206;2024-02-26T08:01:24;8.60;82.90
9820;DHT22;4949;48.482;9.206;2024-02-26T08:06:26;8.90;82.20
9820;DHT22;4949;48.482;9.206;2024-02-26T08:11:27;8.90;82.80
9820;DHT22;4949;48.482;9.206;2024-02-26T08:16:28;8.80;83.30
9820;DHT22;4949;48.482;9.206;2024-02-26T08:21:29;8.70;83.20
9820;DHT22;4949;48.482;9.206;2024-02-26T08:26:32;8.80;83.60
9820;DHT22;4949;48.482;9.206;2024-02-26T08:31:33;9.00;83.80
9820;DHT22;4949;48.482;9.206;2024-02-26T08:36:34;9.00;83.10
9820;DHT22;4949;48.482;9.206;2024-02-26T08:41:37;9.00;82.60
9820;DHT22;4949;48.482;9.206;2024-02-26T08:46:37;9.40;83.10
9820;DHT22;4949;48.482;9.206;2024-02-26T08:51:42;9.10;83.30
9820;DHT22;4949;48.482;9.206;2024-02-26T08:56:44;9.30;83.70
9820;DHT22;4949;48.482;9.206;2024-02-26T09:01:45;9.30;82.50
9820;DHT22;4949;48.482;9.206;2024-02-26T09:06:46;9.40;82.00
9820;DHT22;4949;48.482;9.206;2024-02-26T09:11:47;9.40;81.70
9820;DHT22;4949;48.482;9.206;2024-02-26T09:16:51;9.60;81.00
9820;DHT22;4949;48.482;9.206;2024-02-26T09:21:52;9.80;81.60
9820;DHT22;4949;48.482;9.206;2024-02-26T09:26:57;9.60;81.50
9820;DHT22;4949;48.482;9.206;2024-02-26T09:32:00;9.70;82.20
9820;DHT22;4949;48.482;9.206;2024-02-26T09:37:01;9.80;83.10
9820;DHT22;4949;48.482;9.206;2024-02-26T09:42:04;9.90;83.10
9820;DHT22;4949;48.482;9.206;2024-02-26T09:47:11;9.90;83.60
9820;DHT22;4949;48.482;9.206;2024-02-26T09:52:15;10.10;82.60
9820;DHT22;4949;48.482;9.206;2024-02-26T09:57:16;10.10;81.20
9820;DHT22;4949;48.482;9.206;2024-02-26T10:02:19;10.20;81.50
9820;DHT22;4949;48.482;9.206;2024-02-26T10:07:21;10.60;82.10
9820;DHT22;4949;48.482;9.206;2024-02-26T10:12:26;10.70;82.70
9820;DHT22;4949;48.482;9.206;2024-02-26T10:17:28;10.50;82.70
9820;DHT22;4949;48.482;9.206;2024-02-26T10:22:29;10.60;82.50
9820;DHT22;4949;48.482;9.206;2024-02-26T10:27:32;10.80;82.60
9820;DHT22;4949;48.482;9.206;2024-02-26T10:32:34;10.80;82.70
9820;DHT22;4949;48.482;9.206;2024-02-26T10:37:35;10.90;83.20
9820;DHT22;4949;48.482;9.206;2024-02-26T10:42:38;10.90;83.40
9820;DHT22;4949;48.482;9.206;2024-02-26T10:47:40;10.90;82.80
9820;DHT22;4949;48.482;9.206;2024-02-26T10:52:44;11.00;82.90
9820;DHT22;4949;48.482;9.206;2024-02-26T10:57:45;11.00;83.20
9820;DHT22;4949;48.482;9.206;2024-02-26T11:02:47;11.40;83.60
9820;DHT22;4949;48.482;9.206;2024-02-26T11:07:52;11.10;82.90
9820;DHT22;4949;48.482;9.206;2024-02-26T11:12:54;11.20;82.80
9820;DHT22;4949;48.482;9.206;2024-02-26T11:17:57;11.30;82.70
9820;DHT22;4949;48.482;9.206;2024-02-26T11:23:00;11.40;82.10
9820;DHT22;4949;48.482;9.206;2024-02-26T11:28:04;11.50;82.10
9820;DHT22;4949;48.482;9.206;2024-02-26T11:33:08;11.50;82.00
9820;DHT22;4949;48.482;9.206;2024-02-26T11:38:20;11.50;81.50
9820;DHT22;4949;48.482;9.206;2024-02-26T11:43:50;11.60;81.60
9820;DHT22;4949;48.482;9.206;2024-02-26T11:49:00;11.70;82.00
9820;DHT22;4949;48.482;9.206;2024-02-26T11:54:04;11.80;82.00
9820;DHT22;4949;48.482;9.206;2024-02-26T11:59:09;11.80;81.10
9820;DHT22;4949;48.482;9.206;2024-02-26T12:04:19;12.00;81.10
9820;DHT22;4949;48.482;9.206;2024-02-26T12:09:38;12.20;80.90
9820;DHT22;4949;48.482;9.206;2024-02-26T12:14:50;12.40;80.00
9820;DHT22;4949;48.482;9.206;2024-02-26T12:19:52;12.50;80.00
9820;DHT22;4949;48.482;9.206;2024-02-26T12:25:00;12.70;79.70
9820;DHT22;4949;48.482;9.206;2024-02-26T12:30:03;12.80;79.70
9820;DHT22;4949;48.482;9.206;2024-02-26T12:35:05;12.90;79.00
9820;DHT22;4949;48.482;9.206;2024-02-26T12:40:08;13.10;78.40
9820;DHT22;4949;48.482;9.206;2024-02-26T12:45:11;13.50;77.20
9820;DHT22;4949;48.482;9.206;2024-02-26T12:50:17;13.70;76.60
9820;DHT22;4949;48.482;9.206;2024-02-26T12:55:20;13.80;76.90
9820;DHT22;4949;48.482;9.206;2024-02-26T13:00:25;13.90;75.60
9820;DHT22;4949;48.482;9.206;2024-02-26T13:05:29;13.90;74.90
9820;DHT22;4949;48.482;9.206;2024-02-26T13:10:34;13.80;74.90
9820;DHT22;4949;48.482;9.206;2024-02-26T13:15:35;13.80;75.40
9820;DHT22;4949;48.482;9.206;2024-02-26T13:20:36;13.90;74.70
9820;DHT22;4949;48.482;9.206;2024-02-26T13:25:39;14.10;74.00
9820;DHT22;4949;48.482;9.206;2024-02-26T13:30:41;13.90;73.50
9820;DHT22;4949;48.482;9.206;2024-02-26T13:35:45;14.00;74.00
9820;DHT22;4949;48.482;9.206;2024-02-26T13:40:49;14.00;74.10
9820;DHT22;4949;48.482;9.206;2024-02-26T13:45:54;14.10;73.80
9820;DHT22;4949;48.482;9.206;2024-02-26T13:50:55;14.10;73.90
9820;DHT22;4949;48.482;9.206;2024-02-26T13:55:56;14.10;74.30
9820;DHT22;4949;48.482;9.206;2024-02-26T14:00:59;14.30;73.60
9820;DHT22;4949;48.482;9.206;2024-02-26T14:06:06;14.40;73.00
9820;DHT22;4949;48.482;9.206;2024-02-26T14:11:07;14.70;72.70
9820;DHT22;4949;48.482;9.206;2024-02-26T14:16:11;14.80;72.40
9820;DHT22;4949;48.482;9.206;2024-02-26T14:21:14;15.00;71.10
9820;DHT22;4949;48.482;9.206;2024-02-26T14:26:15;15.20;70.30
9820;DHT22;4949;48.482;9.206;2024-02-26T14:31:18;15.40;70.40
9820;DHT22;4949;48.482;9.206;2024-02-26T14:36:22;15.40;68.70
9820;DHT22;4949;48.482;9.206;2024-02-26T14:41:25;15.40;67.50
9820;DHT22;4949;48.482;9.206;2024-02-26T14:46:28;15.40;66.80
9820;DHT22;4949;48.482;9.206;2024-02-26T14:51:34;15.20;67.20
9820;DHT22;4949;48.482;9.206;2024-02-26T14:56:39;15.20;63.40
9820;DHT22;4949;48.482;9.206;2024-02-26T15:01:43;15.20;62.80
9820;DHT22;4949;48.482;9.206;2024-02-26T15:06:46;15.10;61.00
9820;DHT22;4949;48.482;9.206;2024-02-26T15:11:47;15.00;60.70
9820;DHT22;4949;48.482;9.206;2024-02-26T15:16:48;14.90;60.50
9820;DHT22;4949;48.482;9.206;2024-02-26T15:21:53;14.90;59.90
9820;DHT22;4949;48.482;9.206;2024-02-26T15:26:56;14.80;59.90
9820;DHT22;4949;48.482;9.206;2024-02-26T15:31:58;14.70;60.40
9820;DHT22;4949;48.482;9.206;2024-02-26T15:36:58;14.70;60.60
9820;DHT22;4949;48.482;9.206;2024-02-26T15:42:04;14.50;61.20
9820;DHT22;4949;48.482;9.206;2024-02-26T15:47:09;14.50;61.60
9820;DHT22;4949;48.482;9.206;2024-02-26T15:52:10;14.40;61.90
9820;DHT22;4949;48.482;9.206;2024-02-26T15:57:13;14.30;62.20
9820;DHT22;4949;48.482;9.206;2024-02-26T16:02:14;14.30;61.60
9820;DHT22;4949;48.482;9.206;2024-02-26T16:07:23;14.20;62.00
9820;DHT22;4949;48.482;9.206;2024-02-26T16:17:44;14.00;62.10
9820;DHT22;4949;48.482;9.206;2024-02-26T16:22:48;13.90;61.40
9820;DHT22;4949;48.482;9.206;2024-02-26T16:27:49;13.80;61.00
9820;DHT22;4949;48.482;9.206;2024-02-26T16:32:52;13.70;61.10
9820;DHT22;4949;48.482;9.206;2024-02-26T16:37:56;13.60;60.30
9820;DHT22;4949;48.482;9.206;2024-02-26T16:42:57;14.00;60.40
9820;DHT22;4949;48.482;9.206;2024-02-26T16:47:57;13.50;59.50
9820;DHT22;4949;48.482;9.206;2024-02-26T16:52:58;13.40;59.80
9820;DHT22;4949;48.482;9.206;2024-02-26T16:58:04;13.40;59.60
9820;DHT22;4949;48.482;9.206;2024-02-26T17:03:07;13.40;59.50
9820;DHT22;4949;48.482;9.206;2024-02-26T17:08:10;13.30;59.10
9820;DHT22;4949;48.482;9.206;2024-02-26T17:13:14;13.30;58.90
9820;DHT22;4949;48.482;9.206;2024-02-26T17:18:15;13.20;59.40
9820;DHT22;4949;48.482;9.206;2024-02-26T17:23:17;13.10;59.60
9820;DHT22;4949;48.482;9.206;2024-02-26T17:28:17;13.10;60.40
9820;DHT22;4949;48.482;9.206;2024-02-26T17:33:18;13.00;60.90
9820;DHT22;4949;48.482;9.206;2024-02-26T17:38:19;13.10;60.00
9820;DHT22;4949;48.482;9.206;2024-02-26T17:43:20;13.00;60.00
9820;DHT22;4949;48.482;9.206;2024-02-26T17:48:23;12.80;59.50
9820;DHT22;4949;48.482;9.206;2024-02-26T17:53:24;12.70;59.80
9820;DHT22;4949;48.482;9.206;2024-02-26T17:58:25;12.60;60.70
9820;DHT22;4949;48.482;9.206;2024-02-26T18:03:28;12.50;61.90
9820;DHT22;4949;48.482;9.206;2024-02-26T18:08:29;12.50;62.30
9820;DHT22;4949;48.482;9.206;2024-02-26T18:13:33;12.50;62.80
9820;DHT22;4949;48.482;9.206;2024-02-26T18:18:33;12.40;63.70
9820;DHT22;4949;48.482;9.206;2024-02-26T18:23:37;12.40;65.00
9820;DHT22;4949;48.482;9.206;2024-02-26T18:28:37;12.30;66.40
9820;DHT22;4949;48.482;9.206;2024-02-26T18:33:41;12.20;67.40
9820;DHT22;4949;48.482;9.206;2024-02-26T18:38:41;12.60;68.50
9820;DHT22;4949;48.482;9.206;2024-02-26T18:43:45;12.30;68.50
9820;DHT22;4949;48.482;9.206;2024-02-26T18:48:47;12.00;68.70
9820;DHT22;4949;48.482;9.206;2024-02-26T18:53:48;12.00;69.30
9820;DHT22;4949;48.482;9.206;2024-02-26T18:58:48;12.00;70.80
9820;DHT22;4949;48.482;9.206;2024-02-26T19:03:49;11.80;71.50
9820;DHT22;4949;48.482;9.206;2024-02-26T19:08:50;11.80;72.60
9820;DHT22;4949;48.482;9.206;2024-02-26T19:13:51;11.80;72.00
9820;DHT22;4949;48.482;9.206;2024-02-26T19:18:54;11.80;72.90
9820;DHT22;4949;48.482;9.206;2024-02-26T19:23:57;11.80;73.30
9820;DHT22;4949;48.482;9.206;2024-02-26T19:28:58;12.20;73.60
9820;DHT22;4949;48.482;9.206;2024-02-26T19:33:58;11.80;74.20
9820;DHT22;4949;48.482;9.206;2024-02-26T19:38:59;11.70;75.70
9820;DHT22;4949;48.482;9.206;2024-02-26T19:44:05;11.60;76.00
9820;DHT22;4949;48.482;9.206;2024-02-26T19:49:06;11.70;75.80
9820;DHT22;4949;48.482;9.206;2024-02-26T19:54:06;11.60;76.00
9820;DHT22;4949;48.482;9.206;2024-02-26T19:59:09;11.60;77.20
9820;DHT22;4949;48.482;9.206;2024-02-26T20:04:10;11.70;77.70
9820;DHT22;4949;48.482;9.206;2024-02-26T20:09:15;11.70;78.30
9820;DHT22;4949;48.482;9.206;2024-02-26T20:14:19;11.50;78.70
9820;DHT22;4949;48.482;9.206;2024-02-26T20:19:25;11.80;79.20
9820;DHT22;4949;48.482;9.206;2024-02-26T20:24:29;11.70;80.50
9820;DHT22;4949;48.482;9.206;2024-02-26T20:29:29;11.80;83.10
9820;DHT22;4949;48.482;9.206;2024-02-26T20:34:34;11.30;84.30
9820;DHT22;4949;48.482;9.206;2024-02-26T20:39:37;11.30;84.80
9820;DHT22;4949;48.482;9.206;2024-02-26T20:44:42;11.30;85.90
9820;DHT22;4949;48.482;9.206;2024-02-26T20:49:48;11.30;86.10
9820;DHT22;4949;48.482;9.206;2024-02-26T20:54:48;11.10;87.10
9820;DHT22;4949;48.482;9.206;2024-02-26T20:59:49;11.00;88.60
9820;DHT22;4949;48.482;9.206;2024-02-26T21:04:52;11.30;90.00
9820;DHT22;4949;48.482;9.206;2024-02-26T21:09:53;11.00;90.40
9820;DHT22;4949;48.482;9.206;2024-02-26T21:14:56;10.80;90.60
9820;DHT22;4949;48.482;9.206;2024-02-26T21:20:00;11.10;91.20
9820;DHT22;4949;48.482;9.206;2024-02-26T21:25:00;10.70;91.60
9820;DHT22;4949;48.482;9.206;2024-02-26T21:30:02;10.70;91.60
9820;DHT22;4949;48.482;9.206;2024-02-26T21:35:04;10.60;91.90
9820;DHT22;4949;48.482;9.206;2024-02-26T21:40:06;10.60;92.20
9820;DHT22;4949;48.482;9.206;2024-02-26T21:45:10;10.60;92.50
9820;DHT22;4949;48.482;9.206;2024-02-26T21:50:11;10.60;93.00
9820;DHT22;4949;48.482;9.206;2024-02-26T21:55:13;10.50;93.10
9820;DHT22;4949;48.482;9.206;2024-02-26T22:00:18;10.50;93.10
9820;DHT22;4949;48.482;9.206;2024-02-26T22:05:19;10.50;93.30
9820;DHT22;4949;48.482;9.206;2024-02-26T22:10:22;10.50;93.20
9820;DHT22;4949;48.482;9.206;2024-02-26T22:15:25;10.70;93.20
9820;DHT22;4949;48.482;9.206;2024-02-26T22:20:26;10.80;93.30
9820;DHT22;4949;48.482;9.206;2024-02-26T22:25:32;10.30;93.10
9820;DHT22;4949;48.482;9.206;2024-02-26T22:30:33;10.80;93.50
9820;DHT22;4949;48.482;9.206;2024-02-26T22:35:36;10.30;93.40
9820;DHT22;4949;48.482;9.206;2024-02-26T22:40:37;10.30;93.50
9820;DHT22;4949;48.482;9.206;2024-02-26T22:45:41;10.30;93.80
9820;DHT22;4949;48.482;9.206;2024-02-26T22:50:45;10.10;93.90
9820;DHT22;4949;48.482;9.206;2024-02-26T22:55:48;10.40;94.40
9820;DHT22;4949;48.482;9.206;2024-02-26T23:00:51;10.10;94.60
9820;DHT22;4949;48.482;9.206;2024-02-26T23:05:52;10.30;94.80
9820;DHT22;4949;48.482;9.206;2024-02-26T23:10:53;10.10;94.90
9820;DHT22;4949;48.482;9.206;2024-02-26T23:15:54;10.00;94.80
9820;DHT22;4949;48.482;9.206;2024-02-26T23:20:55;10.40;94.50
9820;DHT22;4949;48.482;9.206;2024-02-26T23:25:56;10.40;94.00
9820;DHT22;4949;48.482;9.206;2024-02-26T23:30:56;10.00;93.70
9820;DHT22;4949;48.482;9.206;2024-02-26T23:35:57;10.00;93.40
9820;DHT22;4949;48.482;9.206;2024-02-26T23:40:58;10.10;93.80
9820;DHT22;4949;48.482;9.206;2024-02-26T23:46:01;10.10;93.90
9820;DHT22;4949;48.482;9.206;2024-02-26T23:51:04;9.90;94.10
9820;DHT22;4949;48.482;9.206;2024-02-26T23:56:05;9.90;94.30
